Other Surface Observations
Issued by NWS Great Falls, MT

Home | Current Version | Previous Version | Text Only | Print | Product List | Glossary On
Versions: 1 2 3 4 5 6 7 8 9 10 11 12 13 14 15 16 17 18 19 20 21 22 23 24 25 26 27 28 29 30 31 32 33 34 35 36 37 38 39 40 41 42 43 44 45 46 47 48 49 50
000
SXUS55 KTFX 180421
OSOTFX
AREA AWOS OBSERVATIONS
NATIONAL WEATHER SERVICE GREAT FALLS MT
0921 PM MST WED DEC 17 2014

METAR KPWD 180415Z AUTO 16010KT 9SM A3003 RMK PLENTYWOOD
METAR KPO1 180415Z AUTO 10007KT 8SM M06/M08 A3002 RMK POPLAR
METAR K1S3 180415Z AUTO 11003KT 5SM M06/M06 A2994 RMK FORSYTH
METAR KS71 180415Z AUTO 23003KT 7SM M07/M08 A2994 RMK CHINOOK
METAR K38S 180415Z AUTO 00000KT 10SM M06/M08 A3000 RMK DEER LODGE
METAR K3U3 180415Z AUTO 18005KT 10SM M03/M08 A2995 RMK ANACONDA
METAR K6S5 180415Z AUTO 14002KT 10SM M02/M04 A2997 RMK HAMILTON
METAR KS59 180415Z AUTO 00000KT 10SM M01/M02 RMK LIBBY
METAR K88M 180415Z AUTO 00000KT 10SM M02/M04 A2999 RMK EUREKA



USA.gov is the U.S. government's official web portal to all federal, state and local government web resources and services.